This is the latest recevied weather packets stored in our database for station/object KC5EZZ-2. If no packets are shown the sender has not sent any weather packets the latest 10 day(s).
| Time | Temp. | Humidity | Pressure | Rain* | Wind** | Luminosity | Snow |
|---|---|---|---|---|---|---|---|
| 1787626689 | 32.78° C | - | - | 0 mm | 1.79 m/s, 159° | - | - |
| 1787626386 | 32.78° C | - | - | 0 mm | 1.34 m/s, 169° | - | - |
| 1787626087 | 32.78° C | - | - | 0 mm | 2.24 m/s, 179° | - | - |
| 1787625787 | 33.33° C | - | - | 0 mm | 2.24 m/s, 155° | - | - |
| 1787625485 | 33.33° C | - | - | 0 mm | 2.24 m/s, 142° | - | - |
| 1787625185 | 33.89° C | - | - | 0 mm | 2.24 m/s, 156° | - | - |
| 1787624885 | 33.89° C | - | - | 0 mm | 2.24 m/s, 160° | - | - |
| 1787624583 | 33.89° C | - | - | 0 mm | 1.79 m/s, 162° | - | - |
| 1787624283 | 33.33° C | - | - | 0 mm | 1.79 m/s, 159° | - | - |
| 1787623983 | 33.89° C | - | - | 0 mm | 2.24 m/s, 156° | - | - |
| 1787623681 | 34.44° C | - | - | 0 mm | 2.24 m/s, 180° | - | - |
| 1787623381 | 34.44° C | - | - | 0 mm | 2.24 m/s, 156° | - | - |
| 1787623081 | 35.56° C | - | - | 0 mm | 2.24 m/s, 162° | - | - |
| 1787622777 | 35.56° C | - | - | 0 mm | 3.13 m/s, 141° | - | - |
| 1787622477 | 35.56° C | - | - | 0 mm | 2.68 m/s, 131° | - | - |
| 1787622177 | 35.56° C | - | - | 0 mm | 2.24 m/s, 124° | - | - |
| 1787621875 | 36.11° C | - | - | 0 mm | 1.79 m/s, 145° | - | - |
| 1787621575 | 36.11° C | - | - | 0 mm | 1.34 m/s, 155° | - | - |
| 1787621275 | 36.11° C | - | - | 0 mm | 2.24 m/s, 146° | - | - |
| 1787588187 | 35.56° C | - | - | 0 mm | 4.47 m/s, 183° | - | - |
| 1787587887 | 35° C | - | - | 0 mm | 4.47 m/s, 207° | - | - |
| 1787587584 | 35.56° C | - | - | 0 mm | 6.26 m/s, 359° | - | - |
| 1787587284 | 35.56° C | - | - | 0 mm | 4.02 m/s, 177° | - | - |
| 1787586985 | 35° C | - | - | 0 mm | 3.13 m/s, 215° | - | - |
| 1787586682 | 35° C | - | - | 0 mm | 4.47 m/s, 250° | - | - |
* Rain latest hour (hover to see other rain measurements)
** Current wind speed in m/s (hover to see current wind gust speed)